Time;durP1;ratioP1;P1;durP2;ratioP2;P2;SDS_P1;SDS_P2;PMS_P1;PMS_P2;Temp;Humidity;BMP_temperature;BMP_pressure;BME280_temperature;BME280_humidity;BME280_pressure;Samples;Min_cycle;Max_cycle;Signal;HPM_P1;HPM_P2
2021/05/17 00:01:56;;;;;;;9.45;4.25;;;;;;;12.87;68.58;99942.44;4956021;28;20106;-54
2021/05/17 00:04:44;;;;;;;7.70;3.25;;;;;;;12.86;69.04;99943.56;4968026;28;20422;-56
2021/05/17 00:07:13;;;;;;;4.93;2.33;;;;;;;12.84;68.22;99941.13;4955307;28;20454;-53
2021/05/17 00:09:40;;;;;;;6.57;3.63;;;;;;;12.74;68.54;99944.09;4955650;28;20039;-55
2021/05/17 00:12:10;;;;;;;6.13;2.60;;;;;;;12.70;69.65;99937.59;4955816;28;20047;-54
2021/05/17 00:14:38;;;;;;;4.65;2.30;;;;;;;12.72;69.45;99943.56;4956005;28;20098;-56
2021/05/17 00:17:06;;;;;;;5.00;2.55;;;;;;;12.65;69.06;99933.06;4955932;28;20062;-56
2021/05/17 00:19:34;;;;;;;6.25;2.85;;;;;;;12.64;69.77;99931.44;4956143;28;20081;-54
2021/05/17 00:22:02;;;;;;;5.25;2.30;;;;;;;12.66;69.66;99931.94;4955539;28;20078;-56
2021/05/17 00:24:31;;;;;;;6.10;2.70;;;;;;;12.66;69.63;99931.94;4955306;28;20054;-56
2021/05/17 00:27:04;;;;;;;5.47;2.28;;;;;;;12.67;70.29;99933.53;4955475;28;20436;-55
2021/05/17 00:29:32;;;;;;;6.95;3.65;;;;;;;12.70;69.29;99932.97;4955557;28;20051;-56
2021/05/17 00:32:04;;;;;;;6.25;2.30;;;;;;;12.71;69.88;99934.56;4955560;28;20110;-55
2021/05/17 00:34:32;;;;;;;5.45;2.83;;;;;;;12.73;68.97;99931.53;4953870;28;20039;-56
2021/05/17 00:37:00;;;;;;;6.53;2.75;;;;;;;12.73;69.80;99937.81;4955177;28;20043;-55
2021/05/17 00:39:29;;;;;;;4.57;2.25;;;;;;;12.70;69.40;99929.41;4953872;29;20054;-56
2021/05/17 00:42:04;;;;;;;4.55;1.90;;;;;;;12.67;69.58;99930.00;4955218;28;20066;-56
2021/05/17 00:44:32;;;;;;;3.83;2.00;;;;;;;12.62;69.47;99928.19;4953840;29;20035;-53
2021/05/17 00:46:59;;;;;;;5.35;2.20;;;;;;;12.58;69.53;99927.19;4955111;28;20079;-55
2021/05/17 00:49:28;;;;;;;5.85;2.38;;;;;;;12.56;70.30;99929.41;4937628;28;20592;-54
2021/05/17 00:51:56;;;;;;;4.47;2.05;;;;;;;12.56;69.88;99922.03;4953598;28;20051;-54
2021/05/17 00:54:24;;;;;;;5.90;2.22;;;;;;;12.56;69.47;99932.16;4955081;28;20043;-56
2021/05/17 00:56:52;;;;;;;3.33;2.00;;;;;;;12.57;69.65;99922.81;4954902;28;20450;-52
2021/05/17 00:59:21;;;;;;;6.60;2.53;;;;;;;12.55;69.59;99922.31;4969738;28;20051;-54
2021/05/17 01:01:49;;;;;;;4.80;2.30;;;;;;;12.54;70.19;99926.16;4953792;29;20098;-55
2021/05/17 01:04:25;;;;;;;2.80;1.80;;;;;;;12.57;69.68;99920.09;4969025;28;20051;-55
2021/05/17 01:06:54;;;;;;;4.30;2.17;;;;;;;12.55;70.26;99917.69;4953199;28;20055;-55
2021/05/17 01:09:26;;;;;;;4.88;3.13;;;;;;;12.58;70.36;99927.19;4954445;28;20103;-55
2021/05/17 01:11:58;;;;;;;6.15;3.20;;;;;;;12.61;70.13;99923.03;4954688;28;20063;-53
2021/05/17 01:14:27;;;;;;;6.55;2.90;;;;;;;12.65;69.54;99919.41;4954683;28;20086;-54
2021/05/17 01:16:55;;;;;;;6.82;3.42;;;;;;;12.68;69.84;99920.72;4954134;28;20055;-55
2021/05/17 01:19:37;;;;;;;5.97;2.80;;;;;;;12.73;69.59;99923.34;4953215;29;20067;-50
2021/05/17 01:22:22;;;;;;;4.55;2.33;;;;;;;12.74;69.56;99922.22;4954170;28;20090;-53
2021/05/17 01:24:50;;;;;;;7.00;2.80;;;;;;;12.73;69.58;99915.13;4954342;28;20047;-55
2021/05/17 01:27:18;;;;;;;6.50;2.65;;;;;;;12.72;69.38;99917.06;4969146;28;20461;-56
2021/05/17 01:29:48;;;;;;;4.93;2.25;;;;;;;12.74;69.53;99925.75;4953257;28;20102;-55
2021/05/17 01:32:17;;;;;;;5.90;2.65;;;;;;;12.72;68.98;99917.06;4953409;28;20055;-53
2021/05/17 01:34:45;;;;;;;5.55;2.78;;;;;;;12.70;69.32;99913.81;4954075;28;20399;-55
2021/05/17 01:37:14;;;;;;;5.43;2.50;;;;;;;12.71;69.15;99926.38;4952617;28;20098;-53
2021/05/17 01:39:43;;;;;;;5.68;2.80;;;;;;;12.68;70.04;99921.50;4952935;28;20062;-55
2021/05/17 01:42:12;;;;;;;5.20;2.55;;;;;;;12.66;69.60;99914.75;4952992;29;20050;-54
2021/05/17 01:44:41;;;;;;;5.53;2.47;;;;;;;12.65;69.64;99910.38;4969091;28;20043;-54
2021/05/17 01:47:08;;;;;;;4.82;2.42;;;;;;;12.62;69.63;99910.97;4952721;29;20079;-55
2021/05/17 01:49:38;;;;;;;4.43;2.35;;;;;;;12.61;69.83;99915.66;4952893;28;20556;-54
2021/05/17 01:52:06;;;;;;;6.07;2.70;;;;;;;12.61;69.82;99909.38;4937007;29;20094;-53
2021/05/17 01:54:39;;;;;;;5.50;2.67;;;;;;;12.61;70.11;99912.13;4952811;28;20110;-55
2021/05/17 01:57:07;;;;;;;8.80;3.00;;;;;;;12.60;70.06;99908.53;4952851;29;20070;-56
2021/05/17 01:59:36;;;;;;;5.40;2.80;;;;;;;12.60;70.27;99908.53;4954072;28;20124;-55
2021/05/17 02:02:06;;;;;;;6.85;3.05;;;;;;;12.60;69.25;99907.75;4967894;28;20114;-56
2021/05/17 02:04:37;;;;;;;7.00;3.10;;;;;;;12.58;69.88;99910.78;4954219;28;20043;-56
2021/05/17 02:07:05;;;;;;;5.10;2.67;;;;;;;12.59;70.02;99906.94;4949155;29;20491;-56
2021/05/17 02:09:36;;;;;;;5.22;2.80;;;;;;;12.57;69.55;99907.22;4969064;28;20105;-55
2021/05/17 02:12:08;;;;;;;5.18;2.88;;;;;;;12.51;70.07;99905.72;4953754;28;20039;-53
2021/05/17 02:14:51;;;;;;;9.27;3.20;;;;;;;12.52;69.76;99912.00;4953889;28;20047;-55
2021/05/17 02:17:25;;;;;;;8.48;2.92;;;;;;;12.53;69.67;99913.59;4936732;29;20459;-55
2021/05/17 02:19:54;;;;;;;6.13;2.80;;;;;;;12.54;69.39;99915.25;4952429;29;20043;-55
2021/05/17 02:22:23;;;;;;;5.97;2.90;;;;;;;12.55;69.79;99917.69;4968491;28;20114;-56
2021/05/17 02:25:11;;;;;;;4.97;2.60;;;;;;;12.57;70.17;99920.09;4953496;28;20418;-56
2021/05/17 02:27:42;;;;;;;6.63;3.05;;;;;;;12.59;69.08;99917.88;4952607;29;20052;-56
2021/05/17 02:30:12;;;;;;;6.63;3.13;;;;;;;12.60;69.21;99919.47;4953879;28;20405;-56
2021/05/17 02:32:41;;;;;;;5.75;2.85;;;;;;;12.61;69.25;99914.84;4953551;28;20082;-56
2021/05/17 02:35:12;;;;;;;6.72;3.03;;;;;;;12.61;69.66;99912.91;4952518;29;20047;-56
2021/05/17 02:37:40;;;;;;;5.10;2.70;;;;;;;12.60;69.34;99919.47;4953734;28;20130;-57
2021/05/17 02:40:08;;;;;;;7.65;3.10;;;;;;;12.60;69.38;99910.47;4949993;28;20047;-53
2021/05/17 02:42:43;;;;;;;5.80;2.88;;;;;;;12.62;69.21;99917.25;4950113;29;20049;-56
2021/05/17 02:45:13;;;;;;;5.60;2.72;;;;;;;12.63;69.14;99916.16;4968019;28;20035;-55
2021/05/17 02:47:41;;;;;;;5.28;2.80;;;;;;;12.64;69.06;99920.50;4954248;28;20043;-56
2021/05/17 02:50:11;;;;;;;7.43;2.83;;;;;;;12.64;69.27;99919.69;4956980;28;20062;-54
2021/05/17 02:52:40;;;;;;;8.00;3.15;;;;;;;12.63;69.67;99918.06;4956921;28;20532;-57
2021/05/17 02:55:09;;;;;;;5.03;2.58;;;;;;;12.63;69.48;99924.34;4971963;28;20136;-56
2021/05/17 02:57:48;;;;;;;6.05;2.95;;;;;;;12.64;68.89;99920.50;4956801;28;20078;-55
2021/05/17 03:00:19;;;;;;;6.45;2.90;;;;;;;12.63;69.44;99918.88;4971471;28;20047;-55
2021/05/17 03:03:00;;;;;;;7.50;3.28;;;;;;;12.62;69.20;99919.19;4957108;28;20043;-56
2021/05/17 03:05:37;;;;;;;6.65;3.00;;;;;;;12.63;69.08;99918.06;4971869;28;20155;-52
2021/05/17 03:08:08;;;;;;;7.63;3.05;;;;;;;12.63;69.35;99923.53;4971329;28;20082;-52
2021/05/17 03:10:42;;;;;;;6.85;3.00;;;;;;;12.61;69.59;99923.84;4971668;28;20118;-53
2021/05/17 03:13:15;;;;;;;7.13;3.05;;;;;;;12.59;68.91;99926.06;4955417;29;20095;-55
2021/05/17 03:15:45;;;;;;;7.32;3.20;;;;;;;12.52;69.71;99922.94;4954749;29;20498;-54
2021/05/17 03:18:14;;;;;;;6.00;2.90;;;;;;;12.47;70.14;99914.84;4956548;28;20043;-53
2021/05/17 03:20:42;;;;;;;3.97;2.67;;;;;;;12.44;69.70;99921.72;4956534;28;20047;-55
2021/05/17 03:23:14;;;;;;;5.93;2.88;;;;;;;12.42;70.05;99923.13;4956638;28;20075;-53
2021/05/17 03:25:45;;;;;;;5.78;2.80;;;;;;;12.43;70.40;99919.28;4971320;28;20043;-54
2021/05/17 03:28:14;;;;;;;4.55;2.75;;;;;;;12.44;70.10;99918.97;4955140;29;20139;-55
2021/05/17 03:30:42;;;;;;;7.03;2.75;;;;;;;12.48;70.05;99921.91;4956469;28;20047;-54
2021/05/17 03:33:10;;;;;;;5.05;2.50;;;;;;;12.48;69.95;99921.91;4956390;28;20043;-53
2021/05/17 03:35:38;;;;;;;5.28;2.80;;;;;;;12.46;70.30;99918.66;4956453;28;20056;-53
2021/05/17 03:38:05;;;;;;;7.38;3.22;;;;;;;12.47;69.83;99920.28;4956343;28;20047;-54
2021/05/17 03:40:33;;;;;;;5.00;2.67;;;;;;;12.40;70.20;99917.97;4956024;28;20043;-53
2021/05/17 03:43:01;;;;;;;4.55;2.20;;;;;;;12.35;71.14;99921.59;4955808;28;20047;-52
2021/05/17 03:45:32;;;;;;;5.97;2.50;;;;;;;12.32;70.66;99919.47;4956036;28;20043;-55
2021/05/17 03:47:59;;;;;;;4.88;2.33;;;;;;;12.31;71.33;99919.75;4956371;28;20070;-53
2021/05/17 03:50:27;;;;;;;5.80;2.58;;;;;;;12.33;71.32;99910.16;4955645;28;20070;-52
2021/05/17 03:52:55;;;;;;;5.40;2.60;;;;;;;12.38;70.95;99913.91;4956061;29;20040;-56
2021/05/17 03:55:22;;;;;;;4.63;2.40;;;;;;;12.40;70.53;99915.22;4961306;28;20434;-56
2021/05/17 03:57:50;;;;;;;3.85;2.20;;;;;;;12.40;70.74;99911.69;4947747;29;20043;-57
2021/05/17 04:00:18;;;;;;;7.47;2.15;;;;;;;12.42;70.40;99917.66;4976458;28;20055;-56
2021/05/17 04:02:46;;;;;;;5.65;2.30;;;;;;;12.31;70.31;99915.13;4959414;28;20050;-55
2021/05/17 04:13:19;;;;;;;5.03;2.13;;;;;;;12.42;70.50;99923.94;4955145;28;20094;-56
2021/05/17 04:15:48;;;;;;;3.55;1.85;;;;;;;12.44;70.46;99926.38;4955815;28;20043;-57
2021/05/17 04:18:20;;;;;;;4.70;2.38;;;;;;;12.44;70.17;99920.91;4955832;28;20043;-54
2021/05/17 04:20:49;;;;;;;2.28;1.88;;;;;;;12.42;70.54;99920.41;4955674;28;20040;-56
2021/05/17 04:23:25;;;;;;;3.42;1.85;;;;;;;12.42;70.85;99923.13;4955402;28;20122;-56
2021/05/17 04:25:53;;;;;;;4.25;2.17;;;;;;;12.44;70.79;99926.38;4955205;28;20113;-56
2021/05/17 04:28:21;;;;;;;2.72;1.63;;;;;;;12.45;70.67;99927.97;4955167;28;20047;-55
2021/05/17 04:30:49;;;;;;;3.33;2.00;;;;;;;12.46;70.85;99922.22;4955447;28;20047;-56
2021/05/17 04:33:16;;;;;;;2.60;1.75;;;;;;;12.48;70.21;99927.38;4955199;28;20410;-56
2021/05/17 04:35:44;;;;;;;4.53;2.00;;;;;;;12.49;69.90;99920.81;4955175;28;20130;-56
2021/05/17 04:38:12;;;;;;;5.82;2.47;;;;;;;12.45;70.58;99923.31;4955133;28;20047;-53
2021/05/17 04:40:42;;;;;;;3.78;1.98;;;;;;;12.47;70.77;99918.38;4954646;28;20055;-57
2021/05/17 04:43:17;;;;;;;5.28;2.30;;;;;;;12.51;70.43;99927.59;4953503;28;20082;-56
2021/05/17 04:45:44;;;;;;;4.15;1.67;;;;;;;12.52;70.59;99928.38;4954934;28;20447;-55
2021/05/17 04:48:14;;;;;;;5.82;2.08;;;;;;;12.51;70.67;99930.31;4969865;28;20082;-56
2021/05/17 04:50:42;;;;;;;5.32;2.45;;;;;;;12.51;70.57;99929.50;4954742;28;20055;-56
2021/05/17 04:53:09;;;;;;;5.13;1.98;;;;;;;12.53;70.59;99936.28;4954693;28;20498;-53
2021/05/17 04:55:37;;;;;;;4.88;2.05;;;;;;;12.58;70.06;99929.94;4954269;28;20062;-54
2021/05/17 04:58:08;;;;;;;5.57;1.90;;;;;;;12.63;70.28;99935.28;4954676;28;20070;-56
2021/05/17 05:00:36;;;;;;;3.53;1.95;;;;;;;12.72;69.74;99938.94;4969768;28;20047;-54
2021/05/17 05:03:04;;;;;;;4.43;1.98;;;;;;;12.69;70.04;99938.72;4970636;28;20058;-55
2021/05/17 05:05:32;;;;;;;4.63;2.05;;;;;;;12.66;70.32;99937.41;4954385;28;20051;-53
2021/05/17 05:08:00;;;;;;;3.10;1.90;;;;;;;12.76;70.45;99947.31;4954423;28;20054;-55
2021/05/17 05:10:28;;;;;;;6.07;2.72;;;;;;;12.87;69.71;99945.19;4953348;28;20055;-54
2021/05/17 05:12:55;;;;;;;4.45;2.03;;;;;;;12.79;69.99;99944.81;4954425;28;20035;-52
2021/05/17 05:15:23;;;;;;;5.82;1.85;;;;;;;12.82;69.41;99942.56;4954505;28;20529;-56
2021/05/17 05:17:50;;;;;;;4.93;2.20;;;;;;;12.83;69.44;99941.47;4967356;28;20036;-55
2021/05/17 05:20:18;;;;;;;3.92;1.92;;;;;;;12.71;69.55;99940.03;4954269;28;20450;-53
2021/05/17 05:22:46;;;;;;;2.40;1.55;;;;;;;12.71;69.81;99942.75;4954523;28;20051;-55
2021/05/17 05:25:15;;;;;;;4.05;1.90;;;;;;;12.76;69.26;99945.38;4953687;28;20039;-55
2021/05/17 05:27:46;;;;;;;6.63;2.10;;;;;;;12.75;70.35;99941.06;4954242;28;20051;-55
2021/05/17 05:35:46;;;;;;;3.65;2.00;;;;;;;12.87;69.55;99943.28;4932675;29;20471;-54
2021/05/17 05:38:14;;;;;;;5.80;2.10;;;;;;;12.89;69.97;99942.94;4932403;29;20083;-55
2021/05/17 05:40:42;;;;;;;4.68;1.92;;;;;;;12.76;69.40;99939.94;4932250;29;20055;-55
2021/05/17 05:43:09;;;;;;;4.18;2.00;;;;;;;12.82;69.69;99942.56;4916673;29;20562;-54
2021/05/17 05:45:44;;;;;;;6.50;2.70;;;;;;;12.75;70.23;99942.97;4932545;29;20040;-55
2021/05/17 05:48:26;;;;;;;4.97;2.03;;;;;;;12.77;70.13;99947.03;4930200;29;20050;-54
2021/05/17 05:50:54;;;;;;;2.90;1.63;;;;;;;12.73;70.18;99948.75;4932249;29;20055;-56
2021/05/17 05:53:22;;;;;;;4.53;1.85;;;;;;;12.67;70.75;99949.13;4932397;29;20415;-54
2021/05/17 05:55:54;;;;;;;5.53;2.08;;;;;;;12.83;70.06;99946.94;4932758;29;20051;-54
2021/05/17 05:58:23;;;;;;;4.82;2.45;;;;;;;12.75;70.29;99952.00;4932838;29;20052;-55
2021/05/17 06:00:51;;;;;;;2.75;1.65;;;;;;;12.82;70.05;99948.03;4932655;29;20577;-56
2021/05/17 06:03:19;;;;;;;6.40;2.15;;;;;;;12.83;69.39;99957.84;4933071;29;20048;-54
2021/05/17 06:05:47;;;;;;;3.72;1.98;;;;;;;12.86;69.29;99951.78;4932687;29;20064;-55
2021/05/17 06:08:15;;;;;;;4.47;1.67;;;;;;;12.89;68.76;99957.47;4932375;29;20469;-57
2021/05/17 06:10:44;;;;;;;7.18;2.50;;;;;;;12.87;69.39;99953.38;4932336;29;20127;-55
2021/05/17 06:13:13;;;;;;;5.47;1.90;;;;;;;12.86;69.43;99957.25;4940162;29;20043;-56
2021/05/17 06:15:44;;;;;;;2.92;1.58;;;;;;;12.94;69.53;99956.50;4954085;28;20047;-56
2021/05/17 06:18:13;;;;;;;7.03;2.40;;;;;;;12.85;69.16;99959.16;4953404;28;20035;-54
2021/05/17 06:20:43;;;;;;;4.97;1.83;;;;;;;12.97;69.44;99961.41;4953634;28;20043;-56
2021/05/17 06:23:14;;;;;;;4.50;2.20;;;;;;;12.96;68.58;99965.22;4970678;28;20051;-56
2021/05/17 06:25:42;;;;;;;5.97;2.55;;;;;;;12.85;69.12;99963.84;4957331;28;20051;-56
2021/05/17 06:28:11;;;;;;;6.60;2.33;;;;;;;12.74;68.98;99952.28;4957279;28;20079;-56
2021/05/17 06:30:48;;;;;;;12.00;2.88;;;;;;;12.74;69.43;99957.75;4957408;28;20051;-55
2021/05/17 06:33:16;;;;;;;4.68;1.80;;;;;;;12.71;69.99;99959.16;4957196;28;20042;-56
2021/05/17 06:35:46;;;;;;;8.05;2.78;;;;;;;12.72;69.71;99963.53;4972026;28;20041;-56
2021/05/17 06:38:14;;;;;;;10.48;2.63;;;;;;;12.84;69.18;99956.72;4971347;28;20043;-55
2021/05/17 06:40:43;;;;;;;3.90;2.00;;;;;;;13.05;69.61;99963.41;4957259;28;20074;-55
2021/05/17 06:43:14;;;;;;;4.30;1.80;;;;;;;13.17;69.21;99962.88;4957359;28;20039;-55
2021/05/17 06:45:42;;;;;;;7.78;2.70;;;;;;;13.11;68.84;99967.66;4957077;28;20062;-56
2021/05/17 06:48:10;;;;;;;10.02;2.85;;;;;;;12.93;68.65;99965.84;4957024;28;20063;-56
2021/05/17 06:50:38;;;;;;;9.55;2.80;;;;;;;12.81;69.00;99963.63;4956139;28;20083;-56
2021/05/17 06:53:07;;;;;;;11.18;2.90;;;;;;;12.75;69.36;99971.13;4956407;28;20075;-53
2021/05/17 06:58:33;;;;;;;19.23;5.50;;;;;;;12.88;68.84;99974.97;4935530;29;20115;-54
2021/05/17 07:01:01;;;;;;;16.77;4.30;;;;;;;12.89;69.26;99970.28;4935589;29;20131;-55
2021/05/17 07:03:31;;;;;;;15.43;4.18;;;;;;;12.91;68.96;99974.34;4926740;29;20354;-56
2021/05/17 07:05:59;;;;;;;15.38;3.90;;;;;;;12.90;69.14;99980.13;4934835;29;20054;-57
2021/05/17 07:11:34;;;;;;;14.88;4.88;;;;;;;12.94;68.48;99976.50;4914902;29;20078;-56
2021/05/17 07:14:18;;;;;;;11.82;4.00;;;;;;;12.96;68.16;99977.00;4919494;29;20255;-54
2021/05/17 07:16:59;;;;;;;11.52;3.33;;;;;;;12.93;68.01;99971.31;4924686;29;20110;-57
2021/05/17 07:19:33;;;;;;;8.15;3.10;;;;;;;12.98;68.65;99973.94;4935081;29;20051;-56
2021/05/17 07:25:18;;;;;;;9.25;3.00;;;;;;;13.16;67.65;99980.41;4832657;29;20097;-52
2021/05/17 07:27:46;;;;;;;9.68;3.08;;;;;;;13.24;67.62;99981.63;4846118;29;20110;-54
2021/05/17 07:30:14;;;;;;;10.70;3.40;;;;;;;13.20;67.56;99976.78;4849452;29;20142;-56
2021/05/17 07:32:41;;;;;;;14.25;4.18;;;;;;;13.44;66.30;99981.19;4845748;29;20042;-53
2021/05/17 07:35:09;;;;;;;10.75;3.38;;;;;;;13.74;65.45;99992.59;4849116;29;20072;-55
2021/05/17 07:37:37;;;;;;;9.90;3.08;;;;;;;13.66;65.63;99985.09;4859623;29;20049;-56
2021/05/17 07:40:06;;;;;;;7.82;3.15;;;;;;;13.40;66.67;99993.88;4859616;29;20078;-57
2021/05/17 07:42:35;;;;;;;11.32;3.35;;;;;;;13.39;67.97;99989.50;4859792;29;20045;-56
2021/05/17 07:45:09;;;;;;;10.50;3.17;;;;;;;13.27;68.08;99997.41;4859602;29;20604;-53
2021/05/17 07:47:38;;;;;;;8.55;2.90;;;;;;;13.18;68.54;99995.41;4859582;29;20568;-53
2021/05/17 07:50:06;;;;;;;8.10;2.90;;;;;;;13.12;68.29;99993.88;4859144;29;20053;-56
2021/05/17 07:52:34;;;;;;;14.18;4.15;;;;;;;13.17;68.57;99993.78;4859361;29;20042;-56
2021/05/17 07:55:03;;;;;;;9.35;2.83;;;;;;;13.16;68.50;99991.38;4859679;29;20046;-55
2021/05/17 07:57:30;;;;;;;9.70;2.90;;;;;;;13.18;69.40;100000.88;4843922;29;20076;-55
2021/05/17 07:59:58;;;;;;;8.43;3.10;;;;;;;13.36;68.40;99999.16;4858873;29;20049;-53
2021/05/17 08:02:26;;;;;;;8.82;2.67;;;;;;;13.32;68.12;100006.34;4943181;29;20051;-56
2021/05/17 08:04:54;;;;;;;7.85;2.90;;;;;;;13.23;69.43;99997.22;4955333;28;20043;-54
2021/05/17 08:07:22;;;;;;;6.78;2.50;;;;;;;13.12;69.67;100002.09;4955854;28;20047;-55
2021/05/17 08:09:52;;;;;;;10.77;3.17;;;;;;;13.24;68.85;100004.31;4955559;28;20038;-53
2021/05/17 08:12:23;;;;;;;10.38;3.08;;;;;;;13.39;68.48;100005.94;4954403;29;20047;-53
2021/05/17 08:14:53;;;;;;;8.75;2.60;;;;;;;13.39;68.28;100006.75;4956983;28;20062;-51
2021/05/17 08:17:22;;;;;;;10.02;3.17;;;;;;;13.75;67.15;100000.47;4954161;29;20077;-54
2021/05/17 08:19:51;;;;;;;8.77;3.08;;;;;;;13.63;67.40;100001.00;4954839;28;20557;-55
2021/05/17 08:22:23;;;;;;;8.02;2.45;;;;;;;13.49;67.91;99999.44;4938645;29;20043;-53
2021/05/17 08:24:54;;;;;;;9.25;3.25;;;;;;;13.53;68.08;100000.44;4955255;28;20490;-53
2021/05/17 08:27:23;;;;;;;7.55;2.60;;;;;;;13.48;67.45;99998.63;4955186;28;20387;-54
2021/05/17 08:29:53;;;;;;;8.38;2.78;;;;;;;13.65;67.19;100003.44;4955240;28;20498;-54
2021/05/17 08:32:21;;;;;;;7.30;3.13;;;;;;;13.76;67.17;100001.31;4969935;28;20052;-53
2021/05/17 08:34:51;;;;;;;8.88;3.40;;;;;;;13.88;67.16;100000.72;4953252;29;20051;-56
2021/05/17 08:37:20;;;;;;;6.78;2.72;;;;;;;13.82;66.46;100000.03;4956238;28;20134;-53
2021/05/17 08:39:49;;;;;;;7.05;2.47;;;;;;;13.74;65.82;99995.31;4951623;29;20055;-55
2021/05/17 08:42:32;;;;;;;17.80;8.20;;;;;;;13.76;65.73;100004.84;4955577;28;20071;-52
2021/05/17 08:45:01;;;;;;;19.13;11.45;;;;;;;13.92;66.42;100002.53;4950436;28;20051;-52
2021/05/17 08:47:29;;;;;;;7.63;3.70;;;;;;;13.86;65.13;100012.00;4953003;28;20866;-51
2021/05/17 08:49:57;;;;;;;10.00;3.75;;;;;;;13.64;65.39;100013.59;4937399;29;20075;-51
2021/05/17 08:52:25;;;;;;;12.60;4.43;;;;;;;13.60;66.54;100007.09;4954762;28;20051;-48
2021/05/17 08:54:53;;;;;;;8.60;3.60;;;;;;;13.71;65.76;100001.38;4954793;28;20050;-51
2021/05/17 08:57:20;;;;;;;6.50;2.75;;;;;;;13.57;66.08;100006.94;4954769;28;20047;-51
2021/05/17 08:59:48;;;;;;;4.78;2.30;;;;;;;13.43;65.56;100004.22;4955030;28;20091;-50
2021/05/17 09:02:16;;;;;;;7.50;2.63;;;;;;;13.37;66.51;100002.69;4952951;29;20047;-50
2021/05/17 09:05:20;;;;;;;7.60;2.58;;;;;;;13.32;66.33;100002.81;4954800;28;20047;-53
2021/05/17 09:07:53;;;;;;;7.68;3.30;;;;;;;13.30;66.25;100013.25;4954238;28;20047;-55
2021/05/17 09:10:21;;;;;;;9.10;3.42;;;;;;;13.32;66.41;100009.09;4954472;28;20043;-55
2021/05/17 09:13:10;;;;;;;9.73;2.85;;;;;;;13.37;66.05;100005.44;4954374;28;20125;-53
2021/05/17 09:15:39;;;;;;;11.73;3.20;;;;;;;13.39;66.65;100003.19;4954285;28;20047;-53
2021/05/17 09:18:14;;;;;;;7.30;2.85;;;;;;;13.37;65.73;100014.47;4954077;28;20036;-55
2021/05/17 09:20:44;;;;;;;10.07;3.07;;;;;;;13.46;66.59;100011.00;4954699;28;20139;-53
2021/05/17 09:23:20;;;;;;;7.53;3.10;;;;;;;13.46;65.76;100014.53;4954044;28;20031;-54
2021/05/17 09:26:10;;;;;;;5.47;2.55;;;;;;;13.48;66.33;100008.78;4952854;29;20045;-51
2021/05/17 09:28:46;;;;;;;8.93;2.92;;;;;;;13.56;65.80;100014.31;4953093;29;20051;-54
2021/05/17 09:31:19;;;;;;;8.82;3.45;;;;;;;13.60;65.55;100023.53;4952376;29;20051;-54
2021/05/17 09:33:50;;;;;;;7.80;3.15;;;;;;;13.71;66.23;100017.81;4954254;28;20047;-54
2021/05/17 09:36:40;;;;;;;8.57;3.20;;;;;;;13.79;66.29;100017.09;4953934;28;20082;-55
2021/05/17 09:39:17;;;;;;;6.65;2.70;;;;;;;13.81;65.43;100012.94;4954305;28;20047;-55
2021/05/17 09:41:59;;;;;;;8.77;2.88;;;;;;;13.79;65.93;100019.84;4948760;28;20070;-53
2021/05/17 09:44:29;;;;;;;8.55;2.90;;;;;;;13.67;67.78;100028.59;4953542;28;20494;-56
2021/05/17 09:47:13;;;;;;;6.70;2.45;;;;;;;13.53;69.26;100027.81;4952473;28;20118;-56
2021/05/17 09:49:48;;;;;;;3.72;1.95;;;;;;;13.41;70.74;100031.06;4951154;29;20043;-56
2021/05/17 09:52:20;;;;;;;5.78;2.30;;;;;;;13.33;70.92;100029.88;4942108;29;20074;-58
2021/05/17 09:55:01;;;;;;;7.45;3.05;;;;;;;13.32;71.02;100030.97;4952252;28;20061;-56
2021/05/17 09:57:33;;;;;;;6.35;2.40;;;;;;;13.28;71.37;100031.91;4946595;28;20069;-54
2021/05/17 10:00:19;;;;;;;6.82;2.40;;;;;;;13.20;72.82;100020.53;4953212;28;20031;-55
2021/05/17 10:02:51;;;;;;;5.43;2.47;;;;;;;13.18;73.46;100024.66;4953736;28;20059;-55
2021/05/17 10:05:21;;;;;;;8.45;2.53;;;;;;;13.19;73.09;100029.84;4953078;28;20054;-60
2021/05/17 10:07:56;;;;;;;4.68;2.45;;;;;;;13.22;74.10;100023.75;4952736;28;20059;-54
2021/05/17 10:10:42;;;;;;;5.28;2.80;;;;;;;13.27;73.69;100024.78;4953565;28;20043;-54
2021/05/17 10:13:10;;;;;;;8.30;2.70;;;;;;;13.30;73.41;100018.72;4950003;29;20467;-53
2021/05/17 10:15:38;;;;;;;4.90;2.50;;;;;;;13.31;72.96;100018.41;4952065;29;20063;-57
2021/05/17 10:18:12;;;;;;;8.65;3.00;;;;;;;13.36;73.28;100022.97;4952338;29;20118;-54
2021/05/17 10:20:42;;;;;;;5.97;2.55;;;;;;;13.45;72.57;100023.88;4953437;28;20509;-53
2021/05/17 10:23:13;;;;;;;7.35;2.90;;;;;;;13.58;72.02;100024.97;4953499;28;20046;-53
2021/05/17 10:25:42;;;;;;;6.47;2.70;;;;;;;13.74;72.02;100022.69;4953632;28;20046;-53
2021/05/17 10:28:24;;;;;;;8.15;2.72;;;;;;;13.80;72.20;100022.25;4952288;29;20043;-51
2021/05/17 10:30:52;;;;;;;5.80;2.63;;;;;;;13.82;70.40;100020.00;4952044;29;20403;-53
2021/05/17 10:33:27;;;;;;;8.25;2.42;;;;;;;13.84;69.68;100022.47;4952082;29;20044;-55
2021/05/17 10:36:12;;;;;;;4.30;1.86;;;;;;;13.83;68.32;100020.84;4895171;28;10000861;-54
2021/05/17 10:38:49;;;;;;;6.63;2.55;;;;;;;13.84;68.26;100022.47;4951484;28;20292;-53
2021/05/17 10:44:38;;;;;;;2.72;2.05;;;;;;;13.96;68.70;100019.97;4948244;29;20039;-53
2021/05/17 10:47:08;;;;;;;4.32;2.22;;;;;;;13.98;68.88;100028.69;4950184;28;20054;-53
2021/05/17 10:49:38;;;;;;;7.97;2.78;;;;;;;14.07;70.17;100031.50;4951754;28;20051;-54
2021/05/17 10:52:10;;;;;;;8.23;2.38;;;;;;;14.15;70.43;100040.91;4966674;28;20406;-54
2021/05/17 10:54:44;;;;;;;4.75;2.00;;;;;;;14.16;69.44;100045.25;4951197;29;20058;-54
2021/05/17 10:57:33;;;;;;;3.15;1.63;;;;;;;14.14;69.19;100047.50;4967664;28;20075;-58
2021/05/17 11:00:25;;;;;;;6.78;2.35;;;;;;;14.18;70.31;100048.50;4967284;28;20118;-55
2021/05/17 11:03:09;;;;;;;6.68;2.10;;;;;;;14.22;70.70;100054.97;4951758;29;20051;-55
2021/05/17 11:05:45;;;;;;;4.93;2.17;;;;;;;14.14;70.44;100051.06;4966728;28;20058;-56
2021/05/17 11:08:24;;;;;;;3.33;1.60;;;;;;;14.13;70.17;100052.16;4950093;28;20048;-56
2021/05/17 11:11:05;;;;;;;3.83;2.10;;;;;;;14.15;70.83;100057.34;4968933;28;20070;-55
2021/05/17 11:13:40;;;;;;;2.60;1.75;;;;;;;14.13;71.04;100052.16;4952748;29;20135;-55
2021/05/17 11:16:09;;;;;;;4.75;2.00;;;;;;;14.23;70.82;100053.84;4969139;28;20055;-56
2021/05/17 11:18:48;;;;;;;3.67;2.25;;;;;;;14.27;70.37;100052.13;4954758;28;20071;-56
2021/05/17 11:21:27;;;;;;;3.80;2.30;;;;;;;14.32;70.14;100054.72;4954472;28;20058;-56
2021/05/17 11:24:02;;;;;;;2.53;1.90;;;;;;;14.25;69.57;100057.09;4953783;28;20126;-53
2021/05/17 11:26:31;;;;;;;6.68;2.40;;;;;;;14.33;69.67;100059.06;4953904;28;20050;-53
2021/05/17 11:29:01;;;;;;;3.92;2.50;;;;;;;14.37;70.01;100062.81;4954222;28;20666;-52
2021/05/17 11:31:39;;;;;;;4.75;2.55;;;;;;;14.41;69.72;100058.34;4953107;29;20047;-53
2021/05/17 11:34:19;;;;;;;2.85;2.40;;;;;;;14.32;68.87;100060.22;4954309;28;20047;-51
2021/05/17 11:36:50;;;;;;;3.55;2.58;;;;;;;14.37;68.23;100062.00;4954667;28;20553;-55
2021/05/17 11:39:27;;;;;;;3.88;2.50;;;;;;;14.36;67.71;100063.94;4955958;28;20050;-56
2021/05/17 11:41:55;;;;;;;3.97;2.60;;;;;;;14.36;67.74;100071.34;4955364;28;20447;-58
2021/05/17 11:44:37;;;;;;;4.25;2.60;;;;;;;14.36;67.98;100066.69;4956496;28;20043;-56
2021/05/17 11:47:11;;;;;;;6.68;2.92;;;;;;;14.31;67.55;100072.31;4956146;28;20047;-57
2021/05/17 11:49:46;;;;;;;5.57;2.70;;;;;;;14.27;68.00;100079.50;4956288;28;20051;-57
2021/05/17 11:52:23;;;;;;;6.75;3.00;;;;;;;14.24;67.47;100078.22;4971031;28;20062;-56
2021/05/17 11:54:53;;;;;;;5.57;2.88;;;;;;;14.24;67.66;100080.16;4956095;28;20056;-56
2021/05/17 11:57:31;;;;;;;5.82;2.90;;;;;;;14.25;67.10;100081.75;4955480;28;20475;-55
2021/05/17 12:00:24;;;;;;;5.18;3.10;;;;;;;14.26;67.65;100089.66;4955685;28;20059;-58
2021/05/17 12:02:54;;;;;;;4.53;3.35;;;;;;;14.23;66.99;100092.22;4955794;28;20054;-57
2021/05/17 12:05:23;;;;;;;6.45;3.40;;;;;;;14.15;67.40;100099.25;4955752;28;20047;-58
2021/05/17 12:07:52;;;;;;;4.18;3.22;;;;;;;14.18;68.18;100106.84;4955042;28;20043;-57
2021/05/17 12:10:21;;;;;;;3.90;3.15;;;;;;;14.20;66.91;100103.78;4955570;28;20059;-58
2021/05/17 12:12:53;;;;;;;4.32;3.33;;;;;;;14.20;66.78;100095.56;4955332;28;20406;-52
2021/05/17 12:15:22;;;;;;;4.65;3.40;;;;;;;14.14;66.30;100107.75;4955488;28;20375;-57